Time;durP1;ratioP1;P1;durP2;ratioP2;P2;SDS_P1;SDS_P2;PMS_P1;PMS_P2;Temp;Humidity;BMP_temperature;BMP_pressure;BME280_temperature;BME280_humidity;BME280_pressure;Samples;Min_cycle;Max_cycle;Signal;HPM_P1;HPM_P2
2022/02/02 00:04:36;;;;;;;28.98;10.88;;;30.00;64.10;;;;;;5083979;28;20226;-47
2022/02/02 00:07:14;;;;;;;27.70;10.35;;;29.90;64.20;;;;;;5083644;28;20093;-45
2022/02/02 00:09:49;;;;;;;25.48;10.23;;;29.90;64.10;;;;;;5084001;28;20022;-47
2022/02/02 00:12:34;;;;;;;26.63;10.32;;;29.90;64.10;;;;;;5082797;28;20021;-49
2022/02/02 00:15:32;;;;;;;29.73;10.27;;;29.90;63.90;;;;;;5084228;28;20020;-49
2022/02/02 00:21:02;;;;;;;27.42;9.90;;;29.90;63.80;;;;;;5055102;28;20036;-54
2022/02/02 00:23:35;;;;;;;23.35;10.30;;;29.90;63.60;;;;;;5083695;28;20056;-52
2022/02/02 00:26:08;;;;;;;31.42;10.93;;;29.80;63.40;;;;;;5083953;28;20316;-52
2022/02/02 00:28:40;;;;;;;28.58;10.77;;;29.80;63.50;;;;;;5084115;28;20035;-56
2022/02/02 00:31:11;;;;;;;25.30;9.90;;;29.80;63.40;;;;;;5084829;28;20024;-55
2022/02/02 00:33:44;;;;;;;17.73;9.90;;;29.80;63.40;;;;;;5085239;28;20347;-57
2022/02/02 00:36:22;;;;;;;24.38;9.82;;;29.80;63.40;;;;;;5084744;28;20021;-47
2022/02/02 00:38:49;;;;;;;31.63;10.05;;;29.80;63.30;;;;;;5083812;28;20027;-51
2022/02/02 00:41:17;;;;;;;45.70;11.10;;;29.70;63.20;;;;;;5084490;28;20067;-46
2022/02/02 00:43:46;;;;;;;29.88;10.50;;;29.70;63.10;;;;;;5083670;28;20023;-53
2022/02/02 00:46:14;;;;;;;27.88;10.02;;;29.60;63.00;;;;;;5082922;28;20035;-52
2022/02/02 00:48:47;;;;;;;28.17;10.60;;;29.60;63.00;;;;;;5085204;28;20312;-52
2022/02/02 00:51:19;;;;;;;26.67;9.95;;;29.60;62.90;;;;;;5087782;28;20316;-47
2022/02/02 00:53:46;;;;;;;36.13;9.85;;;29.60;62.70;;;;;;5088262;28;20016;-50
2022/02/02 00:56:12;;;;;;;55.08;10.90;;;29.60;62.80;;;;;;5088790;28;20043;-55
2022/02/02 00:58:39;;;;;;;117.00;13.18;;;29.60;62.50;;;;;;5087508;28;20019;-49
2022/02/02 01:01:06;;;;;;;24.85;9.40;;;29.60;62.40;;;;;;5086763;28;20096;-50
2022/02/02 01:03:33;;;;;;;35.35;9.50;;;29.50;62.20;;;;;;5087279;28;20031;-49
2022/02/02 01:06:03;;;;;;;29.00;8.88;;;29.50;62.10;;;;;;5087081;28;20024;-53
2022/02/02 01:14:56;;;;;;;20.08;8.57;;;29.50;61.70;;;;;;5086984;28;20011;-54
2022/02/02 01:19:40;;;;;;;23.92;8.85;;;29.40;61.40;;;;;;5086621;28;20043;-57
2022/02/02 01:27:49;;;;;;;26.65;8.70;;;29.40;61.00;;;;;;5086643;28;20024;-54
2022/02/02 01:30:10;;;;;;;30.58;9.35;;;29.40;60.60;;;;;;5086114;28;20035;-53
2022/02/02 01:32:37;;;;;;;19.52;7.93;;;29.40;60.60;;;;;;5086582;28;20301;-52
2022/02/02 01:35:12;;;;;;;19.50;8.50;;;29.40;60.40;;;;;;5086119;28;20096;-47
2022/02/02 01:37:49;;;;;;;29.70;7.80;;;29.40;60.30;;;;;;5093256;28;20020;-54
2022/02/02 01:40:33;;;;;;;19.45;7.88;;;29.40;59.90;;;;;;5092255;28;20036;-41
2022/02/02 01:43:05;;;;;;;24.05;8.20;;;29.40;59.90;;;;;;5086326;28;20396;-43
2022/02/02 01:45:41;;;;;;;33.95;8.05;;;29.30;59.60;;;;;;5086444;28;20033;-53
2022/02/02 01:51:28;;;;;;;24.48;7.60;;;29.30;59.50;;;;;;5095024;28;20032;-43
2022/02/02 01:56:30;;;;;;;26.33;8.30;;;29.30;59.20;;;;;;5084854;28;20024;-45
2022/02/02 01:59:14;;;;;;;16.17;7.65;;;29.20;59.10;;;;;;5085668;28;20020;-51
2022/02/02 02:01:42;;;;;;;12.10;7.90;;;29.20;59.20;;;;;;5086484;28;20024;-41
2022/02/02 02:04:08;;;;;;;18.65;8.00;;;29.20;59.10;;;;;;5085891;28;20058;-44
2022/02/02 02:06:35;;;;;;;30.75;8.32;;;29.20;59.00;;;;;;5092870;28;20047;-43
2022/02/02 02:09:02;;;;;;;20.63;8.32;;;29.20;59.00;;;;;;5102434;28;20016;-43
2022/02/02 02:11:28;;;;;;;12.95;7.65;;;29.10;58.90;;;;;;5106536;28;20257;-49
2022/02/02 02:16:22;;;;;;;20.17;8.38;;;29.10;58.80;;;;;;5104674;28;20062;-45
2022/02/02 02:18:48;;;;;;;49.38;9.93;;;29.10;58.70;;;;;;5105013;28;20028;-45
2022/02/02 02:21:18;;;;;;;29.05;10.05;;;29.00;58.70;;;;;;5105928;28;20327;-43
2022/02/02 02:23:47;;;;;;;18.73;9.30;;;29.00;58.60;;;;;;5097208;28;20140;-44
2022/02/02 02:26:22;;;;;;;47.95;11.00;;;29.00;58.50;;;;;;5084168;28;20074;-47
2022/02/02 02:29:03;;;;;;;26.58;11.45;;;29.00;58.40;;;;;;5084846;28;20071;-45
2022/02/02 02:37:28;;;;;;;21.60;13.05;;;28.90;58.20;;;;;;5085179;28;20149;-49
2022/02/02 02:56:19;;;;;;;21.60;16.52;;;28.70;57.50;;;;;;5072782;28;20229;-45
2022/02/02 02:58:58;;;;;;;25.02;18.23;;;28.70;57.50;;;;;;5084931;28;20013;-54
2022/02/02 03:32:16;;;;;;;36.80;27.95;;;28.70;57.00;;;;;;5084981;28;20366;-42
2022/02/02 03:35:13;;;;;;;33.88;28.00;;;28.70;57.00;;;;;;5094203;28;20012;-43
2022/02/02 03:57:23;;;;;;;48.65;39.45;;;28.60;56.70;;;;;;5094395;28;20016;-48
2022/02/02 04:02:49;;;;;;;52.55;42.55;;;28.60;56.60;;;;;;5083814;28;20023;-50
2022/02/02 04:05:35;;;;;;;95.82;47.17;;;28.60;56.60;;;;;;5083088;28;20024;-48
2022/02/02 04:08:25;;;;;;;68.75;47.28;;;28.50;56.20;;;;;;5084338;28;20335;-44
2022/02/02 04:10:58;;;;;;;66.40;48.25;;;28.50;56.50;;;;;;5084120;28;20099;-46
2022/02/02 04:13:56;;;;;;;72.00;49.88;;;28.60;56.50;;;;;;5083678;28;20267;-45
2022/02/02 04:59:17;;;;;;;97.97;84.43;;;28.40;56.30;;;;;;5086973;28;20054;-43
2022/02/02 05:11:09;;;;;;;101.93;90.78;;;28.30;56.00;;;;;;5087026;28;20033;-51
2022/02/02 05:14:45;;;;;;;104.55;89.60;;;28.30;56.00;;;;;;5086799;28;20309;-51
2022/02/02 05:43:55;;;;;;;110.20;96.65;;;28.20;55.80;;;;;;5086111;28;20020;-52
2022/02/02 05:51:42;;;;;;;111.93;99.72;;;28.20;56.00;;;;;;5086136;28;20013;-55
2022/02/02 05:54:09;;;;;;;116.10;103.05;;;28.20;55.90;;;;;;5086056;28;20027;-48
2022/02/02 05:56:46;;;;;;;114.43;100.20;;;28.10;55.80;;;;;;5085950;28;20104;-45
2022/02/02 05:59:14;;;;;;;114.28;100.07;;;28.20;55.90;;;;;;5085647;28;20020;-48
2022/02/02 06:01:51;;;;;;;115.20;101.75;;;28.20;55.80;;;;;;5085936;28;20103;-44
2022/02/02 06:04:23;;;;;;;116.43;100.38;;;28.20;55.80;;;;;;5085450;28;20160;-48
2022/02/02 06:06:51;;;;;;;110.35;98.32;;;28.20;55.80;;;;;;5086032;28;20032;-49
2022/02/02 06:09:19;;;;;;;112.57;99.30;;;28.10;55.70;;;;;;5085455;28;20252;-45
2022/02/02 06:11:51;;;;;;;113.13;99.85;;;28.10;55.80;;;;;;5085866;28;20099;-50
2022/02/02 06:14:20;;;;;;;116.95;98.15;;;28.10;55.70;;;;;;5085288;28;20025;-56
2022/02/02 06:16:47;;;;;;;111.97;97.00;;;28.10;55.70;;;;;;5085798;28;20033;-54
2022/02/02 06:19:14;;;;;;;107.80;96.18;;;28.10;55.70;;;;;;5085202;28;20016;-48
2022/02/02 06:21:40;;;;;;;108.05;94.40;;;28.10;55.70;;;;;;5084937;28;20335;-52
2022/02/02 06:24:17;;;;;;;113.60;96.47;;;28.00;55.80;;;;;;5085198;28;20074;-44
2022/02/02 06:26:48;;;;;;;108.75;95.43;;;28.10;55.80;;;;;;5085569;28;20078;-43
2022/02/02 06:29:16;;;;;;;106.30;91.28;;;28.00;55.70;;;;;;5084913;28;20121;-48
2022/02/02 06:31:43;;;;;;;110.05;91.30;;;28.10;55.80;;;;;;5085613;28;20039;-47
2022/02/02 06:34:13;;;;;;;105.78;89.65;;;28.00;55.70;;;;;;5085427;28;20009;-46
2022/02/02 06:36:41;;;;;;;102.65;90.82;;;28.00;55.70;;;;;;5085431;28;20036;-44
2022/02/02 06:39:11;;;;;;;103.20;90.57;;;28.10;55.70;;;;;;5084819;28;20024;-46
2022/02/02 06:41:38;;;;;;;103.00;88.55;;;28.00;55.70;;;;;;5085177;28;20052;-53
2022/02/02 06:44:05;;;;;;;104.00;87.07;;;28.00;55.70;;;;;;5084917;28;20078;-46
2022/02/02 06:46:34;;;;;;;102.22;86.18;;;28.00;55.80;;;;;;5084117;28;20029;-44
2022/02/02 06:49:02;;;;;;;102.70;84.85;;;28.00;55.80;;;;;;5084614;28;20028;-44
2022/02/02 06:54:27;;;;;;;96.70;84.55;;;28.00;55.90;;;;;;5084772;28;20030;-47
2022/02/02 06:57:11;;;;;;;95.07;82.78;;;28.00;55.90;;;;;;5052320;28;20032;-47
2022/02/02 07:00:06;;;;;;;93.05;79.35;;;28.00;56.00;;;;;;5084262;28;20351;-44
2022/02/02 07:03:02;;;;;;;101.55;81.93;;;28.00;56.70;;;;;;5084813;28;20217;-55
2022/02/02 07:08:32;;;;;;;96.53;79.97;;;27.90;56.10;;;;;;5084390;28;20091;-50
2022/02/02 07:27:36;;;;;;;90.10;76.38;;;27.80;56.30;;;;;;5042551;28;20193;-44
2022/02/02 07:32:54;;;;;;;89.13;77.95;;;27.80;56.40;;;;;;5084315;28;20020;-50
2022/02/02 07:36:09;;;;;;;95.68;76.53;;;27.80;56.40;;;;;;5083984;28;20317;-45
2022/02/02 07:38:15;;;;;;;88.38;75.20;;;27.80;56.40;;;;;;5078481;28;20320;-47
2022/02/02 07:40:46;;;;;;;92.15;78.72;;;27.80;56.40;;;;;;5084511;28;20031;-45
2022/02/02 07:43:23;;;;;;;87.28;76.38;;;27.70;56.20;;;;;;5084051;28;20070;-44
2022/02/02 07:46:02;;;;;;;92.93;75.40;;;27.70;56.10;;;;;;5084092;28;20073;-48
2022/02/02 07:48:34;;;;;;;90.28;77.13;;;27.70;56.20;;;;;;5084078;28;20024;-43
2022/02/02 07:51:04;;;;;;;89.82;76.45;;;27.70;56.10;;;;;;5084498;28;20021;-47
2022/02/02 07:53:38;;;;;;;92.32;77.93;;;27.70;56.10;;;;;;5083966;28;20021;-45
2022/02/02 07:56:10;;;;;;;88.13;78.40;;;27.70;56.10;;;;;;5084281;28;20052;-44
2022/02/02 07:58:43;;;;;;;93.40;80.20;;;27.70;56.00;;;;;;5087690;28;20027;-44
2022/02/02 08:01:10;;;;;;;;;;;27.70;55.90;;;;;;5088820;28;20032;-45
2022/02/02 08:03:40;;;;;;;89.97;79.93;;;27.70;56.00;;;;;;5087842;28;19939;-44
2022/02/02 08:06:08;;;;;;;93.22;79.80;;;27.60;56.00;;;;;;5088221;28;20164;-45
2022/02/02 08:08:37;;;;;;;93.30;81.22;;;27.60;56.00;;;;;;5087855;28;20031;-44
2022/02/02 08:11:08;;;;;;;94.65;81.57;;;27.60;55.80;;;;;;5088111;28;20028;-47
2022/02/02 08:13:46;;;;;;;100.78;81.97;;;27.60;55.60;;;;;;5087926;28;20020;-45
2022/02/02 08:16:15;;;;;;;94.75;82.75;;;27.60;56.30;;;;;;5088129;28;20020;-50
2022/02/02 08:18:46;;;;;;;96.78;82.18;;;27.60;55.70;;;;;;5087524;28;20021;-49
2022/02/02 08:21:12;;;;;;;94.15;82.90;;;27.60;55.60;;;;;;5088006;28;20025;-54
2022/02/02 08:23:39;;;;;;;92.45;82.20;;;27.60;55.80;;;;;;5087521;28;20016;-46
2022/02/02 08:26:12;;;;;;;94.78;81.97;;;27.60;55.60;;;;;;5087909;28;20033;-51
2022/02/02 08:28:39;;;;;;;91.70;81.28;;;27.60;55.60;;;;;;5087416;28;20248;-44
2022/02/02 08:31:06;;;;;;;93.57;80.38;;;27.60;55.60;;;;;;5087567;28;20368;-45
2022/02/02 08:33:42;;;;;;;93.07;79.40;;;27.60;55.80;;;;;;5087822;28;20028;-50
2022/02/02 08:36:13;;;;;;;93.32;78.47;;;27.60;55.60;;;;;;5087696;28;20056;-44
2022/02/02 08:38:49;;;;;;;86.03;74.53;;;27.50;55.60;;;;;;5086967;28;20066;-46
2022/02/02 08:41:31;;;;;;;85.90;73.75;;;27.50;55.60;;;;;;5087626;28;20054;-47
2022/02/02 08:44:03;;;;;;;80.28;70.18;;;27.50;55.80;;;;;;5087361;28;20020;-48
2022/02/02 08:46:33;;;;;;;82.53;66.07;;;27.50;56.00;;;;;;5087390;28;20078;-43
2022/02/02 08:49:04;;;;;;;74.05;63.00;;;27.50;56.10;;;;;;5086918;28;20020;-54
2022/02/02 08:51:35;;;;;;;71.13;60.97;;;27.50;56.20;;;;;;5087262;28;20066;-47
2022/02/02 09:01:50;;;;;;;59.95;53.03;;;27.40;56.70;;;;;;5085722;28;20020;-44
2022/02/02 09:07:02;;;;;;;60.92;51.95;;;27.40;57.00;;;;;;5086568;28;20348;-46
2022/02/02 09:09:49;;;;;;;60.17;51.20;;;27.40;57.00;;;;;;5085726;28;20091;-45
2022/02/02 09:21:13;;;;;;;61.75;47.10;;;27.30;57.60;;;;;;5086373;28;20023;-43
2022/02/02 09:23:29;;;;;;;54.78;44.78;;;27.20;57.70;;;;;;5086696;28;20320;-43
2022/02/02 09:34:02;;;;;;;51.90;42.97;;;27.20;58.10;;;;;;5086210;28;20023;-45
2022/02/02 09:36:32;;;;;;;51.40;43.45;;;27.20;58.20;;;;;;5085873;28;20373;-48
2022/02/02 09:39:07;;;;;;;53.38;44.05;;;27.20;58.20;;;;;;5086200;28;20028;-47
2022/02/02 09:42:01;;;;;;;61.25;43.30;;;27.10;58.30;;;;;;5086326;28;20032;-48
2022/02/02 09:44:24;;;;;;;100.95;45.08;;;27.10;58.40;;;;;;5085992;28;20025;-47
2022/02/02 09:47:02;;;;;;;69.43;45.72;;;27.10;58.60;;;;;;5086327;28;20083;-49
2022/02/02 09:49:42;;;;;;;70.65;45.92;;;27.10;58.60;;;;;;5086083;28;20030;-45
2022/02/02 09:52:13;;;;;;;82.30;46.72;;;27.10;58.70;;;;;;5086030;28;20025;-48
2022/02/02 09:54:55;;;;;;;76.32;47.42;;;27.10;58.90;;;;;;5085788;28;20020;-45
2022/02/02 10:02:32;;;;;;;68.82;48.08;;;27.00;59.40;;;;;;5086070;28;20017;-45
2022/02/02 10:05:15;;;;;;;344.02;59.38;;;27.00;59.40;;;;;;5085739;28;20032;-45
2022/02/02 10:13:16;;;;;;;254.43;57.70;;;26.90;59.90;;;;;;5085464;28;20076;-45
2022/02/02 10:15:43;;;;;;;126.82;55.15;;;26.90;60.10;;;;;;5085511;28;20063;-47
2022/02/02 10:18:16;;;;;;;108.80;56.30;;;26.90;59.70;;;;;;5085300;28;20017;-44
2022/02/02 10:20:44;;;;;;;102.75;56.70;;;26.90;59.70;;;;;;5084938;28;20021;-45
2022/02/02 10:23:11;;;;;;;146.20;57.92;;;26.90;59.80;;;;;;5085220;28;20077;-44
2022/02/02 10:25:47;;;;;;;123.72;58.90;;;26.90;60.20;;;;;;5085352;28;20044;-53
2022/02/02 10:28:18;;;;;;;109.13;57.10;;;26.90;60.50;;;;;;5085197;28;20053;-45
2022/02/02 10:30:48;;;;;;;86.87;57.87;;;26.80;60.40;;;;;;5085354;28;20029;-46
2022/02/02 10:33:18;;;;;;;86.53;59.42;;;26.80;60.30;;;;;;5084796;28;20016;-47
2022/02/02 10:35:48;;;;;;;96.22;60.03;;;26.80;60.20;;;;;;5085084;28;20028;-45
2022/02/02 10:38:20;;;;;;;124.55;60.42;;;26.80;60.30;;;;;;5084741;28;20213;-55
2022/02/02 10:43:36;;;;;;;113.47;62.22;;;26.80;60.90;;;;;;5084708;28;20016;-48
2022/02/02 10:46:25;;;;;;;96.85;58.85;;;26.70;60.60;;;;;;5085034;28;20020;-45
2022/02/02 10:49:06;;;;;;;90.20;60.42;;;26.70;60.60;;;;;;5084507;28;20025;-48
2022/02/02 10:51:39;;;;;;;92.32;62.10;;;26.70;60.70;;;;;;5085113;28;20028;-47
2022/02/02 10:54:17;;;;;;;101.00;65.47;;;26.70;60.70;;;;;;5084691;28;20012;-44
2022/02/02 10:57:04;;;;;;;104.82;64.80;;;26.70;60.40;;;;;;5085085;28;20029;-47
2022/02/02 11:07:55;;;;;;;200.63;76.50;;;26.60;60.00;;;;;;5064860;28;20056;-48
2022/02/02 11:10:23;;;;;;;182.73;79.00;;;26.60;60.10;;;;;;5084458;28;20074;-48
2022/02/02 11:12:51;;;;;;;168.52;75.53;;;26.50;60.20;;;;;;5084438;28;20040;-49
2022/02/02 11:15:54;;;;;;;163.95;77.30;;;26.50;60.20;;;;;;5084440;28;20024;-45
2022/02/02 11:18:21;;;;;;;;;;;26.40;60.10;;;;;;5084594;28;20044;-48
2022/02/02 11:20:48;;;;;;;181.38;72.60;;;26.40;60.10;;;;;;5084100;28;20193;-53
2022/02/02 11:23:15;;;;;;;161.95;70.85;;;26.30;59.90;;;;;;5084136;28;20083;-47
2022/02/02 11:25:54;;;;;;;172.80;68.72;;;26.30;60.00;;;;;;5084309;28;20029;-47
2022/02/02 11:28:25;;;;;;;164.90;74.25;;;26.30;60.30;;;;;;5083940;28;20049;-50
2022/02/02 11:31:03;;;;;;;165.73;69.45;;;26.30;60.50;;;;;;5082946;28;20111;-51
2022/02/02 11:33:41;;;;;;;175.40;67.05;;;26.30;60.10;;;;;;5081977;28;20084;-54
2022/02/02 11:36:19;;;;;;;157.43;65.50;;;26.40;60.00;;;;;;5083374;28;20239;-53
2022/02/02 11:38:47;;;;;;;153.10;63.70;;;26.40;60.10;;;;;;5083211;28;20020;-49
2022/02/02 11:41:22;;;;;;;138.93;61.63;;;26.40;59.70;;;;;;5083166;28;20100;-52
2022/02/02 11:44:05;;;;;;;131.38;60.50;;;26.40;59.70;;;;;;5082794;28;20182;-50
2022/02/02 11:46:48;;;;;;;140.43;60.83;;;26.40;59.40;;;;;;5084333;28;20308;-46
2022/02/02 11:49:19;;;;;;;153.48;60.13;;;26.40;59.80;;;;;;5084454;28;20055;-59
2022/02/02 11:51:51;;;;;;;168.70;61.63;;;26.50;59.80;;;;;;5084566;28;20047;-52
2022/02/02 11:54:19;;;;;;;136.37;62.03;;;26.50;59.60;;;;;;5083979;28;20055;-50
2022/02/02 11:59:51;;;;;;;148.00;63.53;;;26.60;59.00;;;;;;5084115;28;20324;-47
2022/02/02 12:03:22;;;;;;;137.55;63.47;;;26.60;59.00;;;;;;5083996;28;20021;-48
2022/02/02 12:05:59;;;;;;;116.63;62.35;;;26.60;58.90;;;;;;5077241;28;20040;-49
2022/02/02 12:35:55;;;;;;;124.07;67.03;;;26.60;58.20;;;;;;5083851;28;20113;-48
2022/02/02 13:00:20;;;;;;;103.88;72.32;;;26.90;57.40;;;;;;5087115;28;20196;-53
2022/02/02 13:02:48;;;;;;;97.72;70.72;;;26.90;57.40;;;;;;5086662;28;20024;-53
2022/02/02 13:05:21;;;;;;;101.50;71.55;;;26.90;57.30;;;;;;5086972;28;20024;-53
2022/02/02 13:07:48;;;;;;;98.95;72.88;;;26.90;57.00;;;;;;5086849;28;20080;-53
2022/02/02 13:10:21;;;;;;;104.47;72.63;;;27.00;57.00;;;;;;5085577;28;20032;-57
2022/02/02 13:20:54;;;;;;;89.70;66.57;;;27.00;57.20;;;;;;5086538;28;20070;-50
2022/02/02 13:23:44;;;;;;;95.50;66.40;;;27.00;57.20;;;;;;5086568;28;20012;-56
2022/02/02 13:26:21;;;;;;;86.70;62.08;;;27.00;57.20;;;;;;5086933;28;20054;-47
2022/02/02 13:48:48;;;;;;;87.78;60.03;;;27.20;57.60;;;;;;5086080;28;20013;-51
2022/02/02 14:00:24;;;;;;;76.55;56.92;;;27.20;58.00;;;;;;5086039;28;20020;-50
2022/02/02 14:05:03;;;;;;;68.53;50.50;;;27.30;58.10;;;;;;5085690;28;20046;-48
2022/02/02 14:32:33;;;;;;;42.22;20.65;;;27.60;57.90;;;;;;5085351;28;20023;-52
2022/02/02 14:34:59;;;;;;;27.83;17.48;;;27.60;58.40;;;;;;5085260;28;20297;-51
2022/02/02 14:37:35;;;;;;;26.98;16.48;;;27.60;58.70;;;;;;5085562;28;20017;-49
2022/02/02 14:40:13;;;;;;;28.17;15.38;;;27.60;58.80;;;;;;5084343;28;20024;-54
2022/02/02 14:42:42;;;;;;;21.25;13.35;;;27.60;59.00;;;;;;5085108;28;20317;-44
2022/02/02 14:45:13;;;;;;;25.52;14.07;;;27.70;59.10;;;;;;5085256;28;20303;-46
2022/02/02 14:47:44;;;;;;;20.35;12.50;;;27.70;59.20;;;;;;5085363;28;20316;-46
2022/02/02 14:50:28;;;;;;;21.17;11.18;;;27.70;59.30;;;;;;5084867;28;20313;-50
2022/02/02 14:53:08;;;;;;;18.77;9.50;;;27.70;59.40;;;;;;5085316;28;20031;-52
2022/02/02 15:16:49;;;;;;;19.08;7.80;;;27.80;61.80;;;;;;5084546;28;20016;-57
2022/02/02 15:28:19;;;;;;;23.02;6.82;;;27.90;61.50;;;;;;5084342;28;20119;-45
2022/02/02 15:33:18;;;;;;;24.98;7.53;;;27.90;62.00;;;;;;5084508;28;19943;-47
2022/02/02 15:35:46;;;;;;;21.20;7.78;;;28.00;62.20;;;;;;5084590;28;20170;-51
2022/02/02 15:38:31;;;;;;;22.30;7.90;;;28.00;62.10;;;;;;5084445;28;20025;-52
2022/02/02 15:41:03;;;;;;;49.03;9.77;;;28.00;62.40;;;;;;5084463;28;20031;-49
2022/02/02 15:43:42;;;;;;;40.75;9.32;;;28.00;62.60;;;;;;5084431;28;20062;-49
2022/02/02 15:54:45;;;;;;;29.00;9.07;;;28.10;62.90;;;;;;5084268;28;20073;-46
2022/02/02 16:00:19;;;;;;;26.33;10.20;;;28.10;62.90;;;;;;5084099;28;20084;-50
2022/02/02 16:05:25;;;;;;;18.63;9.23;;;28.10;62.80;;;;;;5084000;28;20020;-49
2022/02/02 16:07:54;;;;;;;23.80;9.25;;;28.10;62.80;;;;;;5084180;28;20044;-53
2022/02/02 16:10:28;;;;;;;20.30;9.30;;;28.10;62.70;;;;;;5083947;28;20052;-46
2022/02/02 16:12:55;;;;;;;19.15;9.43;;;28.20;62.90;;;;;;5083798;28;20027;-55
2022/02/02 16:15:29;;;;;;;18.20;9.20;;;28.20;63.20;;;;;;5083990;28;20021;-47
2022/02/02 16:31:37;;;;;;;18.55;8.77;;;28.30;63.90;;;;;;5087845;28;20069;-45
2022/02/02 16:36:47;;;;;;;18.42;8.05;;;28.30;64.30;;;;;;5088454;28;20051;-48
2022/02/02 16:39:21;;;;;;;17.95;8.82;;;28.40;64.60;;;;;;5087896;28;20087;-45
2022/02/02 16:44:32;;;;;;;15.27;8.50;;;28.40;64.50;;;;;;5087327;28;20061;-48
2022/02/02 16:46:59;;;;;;;14.80;7.75;;;28.40;64.60;;;;;;5087167;28;20040;-47
2022/02/02 16:49:25;;;;;;;14.82;7.88;;;28.40;64.50;;;;;;5087667;28;20020;-50
2022/02/02 16:51:52;;;;;;;14.68;8.25;;;28.50;64.40;;;;;;5088017;28;20025;-53
2022/02/02 16:54:30;;;;;;;15.07;7.85;;;28.50;64.40;;;;;;5087217;28;20021;-48
2022/02/02 16:57:08;;;;;;;38.75;10.20;;;28.50;64.30;;;;;;5087701;28;20261;-49
2022/02/02 17:24:24;;;;;;;19.67;9.00;;;28.90;64.30;;;;;;5086864;28;20058;-47
2022/02/02 17:29:57;;;;;;;24.08;8.93;;;28.90;64.40;;;;;;5085616;28;20112;-48
2022/02/02 17:32:34;;;;;;;25.08;7.72;;;28.90;64.40;;;;;;5086911;28;20062;-52
2022/02/02 17:35:22;;;;;;;19.58;7.80;;;28.90;64.70;;;;;;5086753;28;20056;-48
2022/02/02 17:45:34;;;;;;;31.27;8.52;;;29.00;64.60;;;;;;5086350;28;20016;-53
2022/02/02 18:20:51;;;;;;;25.48;7.85;;;29.00;64.60;;;;;;5086121;28;20021;-48
2022/02/02 18:23:28;;;;;;;20.52;7.03;;;29.00;64.60;;;;;;5085578;28;20186;-48
2022/02/02 18:26:18;;;;;;;19.95;7.60;;;29.10;64.60;;;;;;5085596;28;20016;-48
2022/02/02 18:33:52;;;;;;;18.70;7.50;;;29.10;64.40;;;;;;5085224;28;20074;-49
2022/02/02 18:50:06;;;;;;;77.97;8.85;;;29.20;63.50;;;;;;5084873;28;20013;-46
2022/02/02 18:55:43;;;;;;;26.50;7.50;;;29.20;63.60;;;;;;5083895;28;20035;-49
2022/02/02 18:58:26;;;;;;;;;;;29.30;63.50;;;;;;5085232;28;20016;-48
2022/02/02 19:55:35;;;;;;;11.90;6.88;;;29.70;62.30;;;;;;5084058;28;20017;-45
2022/02/02 20:06:57;;;;;;;11.35;6.45;;;29.80;62.20;;;;;;5084873;28;20025;-47
2022/02/02 20:11:38;;;;;;;108.82;12.68;;;29.90;61.70;;;;;;5084902;28;20013;-49
2022/02/02 20:14:05;;;;;;;30.15;7.45;;;29.90;61.90;;;;;;5094675;28;20024;-49
2022/02/02 20:16:31;;;;;;;21.42;6.53;;;29.90;61.20;;;;;;5086748;28;20046;-44
2022/02/02 20:19:00;;;;;;;18.38;6.80;;;30.00;60.90;;;;;;5092581;28;20065;-45
2022/02/02 20:21:34;;;;;;;32.65;6.97;;;30.00;61.10;;;;;;5083498;28;20202;-45
2022/02/02 20:24:03;;;;;;;17.25;6.60;;;30.10;60.80;;;;;;5083543;28;20025;-47
2022/02/02 20:26:32;;;;;;;15.20;6.53;;;30.10;61.00;;;;;;5084116;28;20096;-53
2022/02/02 20:29:01;;;;;;;18.73;6.43;;;30.10;61.30;;;;;;5083127;28;20056;-45
2022/02/02 20:31:29;;;;;;;11.13;6.63;;;30.20;61.20;;;;;;5088084;28;20027;-49
2022/02/02 20:33:56;;;;;;;10.55;6.65;;;30.20;61.10;;;;;;5094162;28;20047;-47
2022/02/02 20:36:23;;;;;;;12.70;6.50;;;30.20;61.30;;;;;;5103987;28;20182;-48
2022/02/02 20:38:49;;;;;;;13.23;6.88;;;30.20;61.50;;;;;;5094119;28;20024;-52
2022/02/02 20:41:16;;;;;;;9.57;6.53;;;30.20;61.60;;;;;;5083872;28;20051;-47
2022/02/02 20:43:52;;;;;;;15.82;7.60;;;30.20;61.20;;;;;;5083322;28;20058;-48
2022/02/02 21:05:51;;;;;;;42.38;8.60;;;30.30;62.20;;;;;;5084365;28;20024;-48
2022/02/02 21:11:13;;;;;;;17.05;6.35;;;30.30;61.40;;;;;;5087111;28;20017;-48
2022/02/02 21:13:44;;;;;;;22.42;6.90;;;30.30;61.00;;;;;;5086365;28;20181;-53
2022/02/02 21:16:14;;;;;;;20.92;6.78;;;30.20;61.50;;;;;;5085275;28;20020;-49
2022/02/02 21:18:42;;;;;;;22.45;6.57;;;30.20;61.50;;;;;;5085180;28;20016;-48
2022/02/02 21:21:20;;;;;;;19.23;6.95;;;30.20;61.40;;;;;;5086002;28;20024;-45
2022/02/02 21:26:35;;;;;;;;;;;30.30;61.70;;;;;;5087395;28;20009;-48
2022/02/02 21:29:02;;;;;;;18.50;6.93;;;30.30;61.90;;;;;;5086196;28;20138;-52
2022/02/02 21:31:28;;;;;;;17.17;7.45;;;30.20;61.90;;;;;;5086967;28;20262;-45
2022/02/02 21:33:55;;;;;;;30.73;8.63;;;30.20;61.90;;;;;;5086394;28;20017;-46
2022/02/02 21:36:22;;;;;;;18.23;8.10;;;30.20;61.90;;;;;;5086613;28;20029;-49
2022/02/02 21:39:04;;;;;;;41.15;8.90;;;30.20;62.00;;;;;;5086754;28;20012;-46
2022/02/02 21:41:35;;;;;;;35.72;8.38;;;30.20;62.00;;;;;;5086570;28;20051;-45
2022/02/02 21:44:03;;;;;;;49.78;8.93;;;30.20;62.00;;;;;;5086102;28;20013;-51
2022/02/02 21:46:30;;;;;;;38.28;8.57;;;30.20;62.10;;;;;;5086430;28;20028;-45
2022/02/02 21:49:00;;;;;;;37.17;8.82;;;30.20;62.10;;;;;;5086164;28;20028;-54
2022/02/02 21:51:31;;;;;;;28.33;10.98;;;30.20;62.10;;;;;;5086349;28;20031;-56
2022/02/02 21:53:58;;;;;;;27.15;10.52;;;30.20;62.20;;;;;;5085955;28;20024;-51
2022/02/02 21:56:25;;;;;;;36.67;12.18;;;30.20;62.40;;;;;;5086181;28;20028;-50
2022/02/02 21:58:52;;;;;;;24.65;9.50;;;30.20;62.50;;;;;;5085854;28;20086;-55
2022/02/02 22:01:19;;;;;;;58.28;10.70;;;30.20;62.40;;;;;;5086256;28;20020;-46
2022/02/02 22:03:45;;;;;;;35.50;9.98;;;30.20;62.60;;;;;;5085700;28;20024;-52
2022/02/02 22:06:12;;;;;;;33.83;9.68;;;30.20;62.60;;;;;;5086082;28;20029;-51
2022/02/02 22:08:41;;;;;;;26.48;9.35;;;30.20;62.80;;;;;;5085595;28;20013;-46
2022/02/02 22:11:08;;;;;;;26.10;10.02;;;30.20;62.70;;;;;;5086084;28;20070;-46
2022/02/02 22:13:41;;;;;;;44.72;9.65;;;30.20;62.90;;;;;;5085647;28;20020;-46
2022/02/02 22:16:15;;;;;;;62.70;11.32;;;30.20;63.10;;;;;;5085500;28;20025;-52
2022/02/02 22:18:44;;;;;;;36.03;10.43;;;30.20;63.20;;;;;;5085537;28;20071;-50
2022/02/02 22:21:11;;;;;;;31.67;9.45;;;30.20;63.30;;;;;;5085607;28;20044;-47
2022/02/02 22:23:41;;;;;;;32.35;9.52;;;30.20;63.50;;;;;;5085129;28;20017;-45
2022/02/02 22:26:08;;;;;;;29.90;9.48;;;30.20;63.90;;;;;;5085663;28;20134;-51
2022/02/02 22:28:35;;;;;;;30.40;10.30;;;30.20;63.90;;;;;;5085163;28;20048;-53
2022/02/02 22:31:02;;;;;;;35.08;9.95;;;30.20;64.50;;;;;;5085302;28;20027;-48
2022/02/02 22:33:29;;;;;;;39.45;9.95;;;30.20;64.30;;;;;;5085089;28;20257;-56
2022/02/02 22:35:55;;;;;;;27.75;9.07;;;30.20;64.30;;;;;;5085555;28;20224;-52
2022/02/02 22:38:24;;;;;;;42.60;9.77;;;30.10;64.40;;;;;;5085045;28;20209;-46
2022/02/02 22:40:50;;;;;;;56.15;10.18;;;30.10;64.40;;;;;;5088520;28;20035;-49
2022/02/02 22:43:17;;;;;;;37.05;10.38;;;30.10;65.10;;;;;;5092296;28;20031;-50
2022/02/02 22:45:49;;;;;;;28.65;9.25;;;30.20;64.70;;;;;;5089475;28;20300;-50
2022/02/02 22:48:38;;;;;;;;;;;30.20;64.70;;;;;;5096202;28;20300;-48
2022/02/02 22:51:03;;;;;;;55.67;11.43;;;30.20;64.90;;;;;;5096873;28;19938;-51
2022/02/02 22:53:30;;;;;;;51.67;11.82;;;30.10;64.90;;;;;;5084541;28;20088;-54
2022/02/02 22:56:08;;;;;;;39.40;10.52;;;30.10;65.00;;;;;;5084871;28;20270;-45
2022/02/02 22:58:35;;;;;;;38.63;11.20;;;30.10;65.00;;;;;;5087415;28;20304;-49
2022/02/02 23:01:01;;;;;;;70.60;12.82;;;30.10;65.00;;;;;;5090046;28;20016;-49
2022/02/02 23:03:29;;;;;;;45.95;11.13;;;30.10;65.00;;;;;;5087417;28;20126;-48
2022/02/02 23:06:00;;;;;;;44.70;11.32;;;30.10;65.10;;;;;;5084584;28;20039;-52
2022/02/02 23:08:28;;;;;;;44.25;10.77;;;30.10;65.00;;;;;;5084597;28;20021;-52
2022/02/02 23:10:56;;;;;;;40.15;10.57;;;30.10;65.00;;;;;;5084050;28;20016;-57
2022/02/02 23:13:25;;;;;;;39.78;11.00;;;30.10;65.00;;;;;;5084242;28;20033;-55
2022/02/02 23:16:01;;;;;;;38.00;10.88;;;30.00;65.00;;;;;;5084205;28;20015;-57
2022/02/02 23:18:32;;;;;;;30.63;10.82;;;30.00;65.20;;;;;;5084118;28;20024;-49
2022/02/02 23:21:02;;;;;;;37.08;10.52;;;30.00;65.10;;;;;;5082788;28;20362;-54
2022/02/02 23:23:31;;;;;;;43.65;10.55;;;30.00;65.20;;;;;;5082818;28;20217;-49